UAL2364 KMIA-KEWR
Flight info
| Callsign | UAL2364 |
|---|---|
| Flight time | 2h 23m |
| Altitude | 36000 |
| Route | FOLZZ3 ALYRA GRUBR/N0445F370 Y299 SEELO GARIC Q129 AARNN QUART PHLBO4 |
| Aircraft | A320/M-SDE3FGHIRWY/LB1 |
Departure
| Time | 2026-05-07 15:15 |
|---|---|
| Airport | Miami International Airport (KMIA) |
Arrival
| Time | 2026-05-07 17:38 |
|---|---|
| Airport | Newark Liberty International Airport (KEWR) |
| Time | Latitude | Longitude | Altitude | Speed | Heading |
|---|---|---|---|---|---|
| 2026-05-07 14:09 | 25.79057 | -80.27876 | 16 ft | 0 kts | 309° |
| 2026-05-07 14:56 | 25.79057 | -80.27875 | 15 ft | 0 kts | 309° |
| 2026-05-07 15:05 | 25.79056 | -80.27874 | 16 ft | 2 kts | 309° |
| 2026-05-07 15:05 | 25.79035 | -80.27844 | 15 ft | 4 kts | 309° |
| 2026-05-07 15:06 | 25.79025 | -80.27831 | 15 ft | 2 kts | 309° |
| 2026-05-07 15:06 | 25.79015 | -80.27818 | 16 ft | 4 kts | 226° |
| 2026-05-07 15:06 | 25.79031 | -80.27808 | 15 ft | 0 kts | 202° |
| 2026-05-07 15:06 | 25.79024 | -80.27814 | 16 ft | 0 kts | 219° |
| 2026-05-07 15:08 | 25.79018 | -80.27816 | 15 ft | 4 kts | 203° |
| 2026-05-07 15:09 | 25.78974 | -80.27834 | 15 ft | 9 kts | 201° |
| 2026-05-07 15:09 | 25.78935 | -80.27907 | 16 ft | 13 kts | 279° |
| 2026-05-07 15:09 | 25.78976 | -80.28007 | 16 ft | 16 kts | 299° |
| 2026-05-07 15:09 | 25.79035 | -80.28123 | 15 ft | 18 kts | 299° |
| 2026-05-07 15:10 | 25.79096 | -80.28241 | 15 ft | 18 kts | 302° |
| 2026-05-07 15:10 | 25.79161 | -80.28366 | 15 ft | 18 kts | 296° |
| 2026-05-07 15:10 | 25.79244 | -80.28462 | 17 ft | 18 kts | 304° |
| 2026-05-07 15:10 | 25.79308 | -80.28584 | 15 ft | 19 kts | 299° |
| 2026-05-07 15:11 | 25.79372 | -80.28711 | 15 ft | 17 kts | 302° |
| 2026-05-07 15:11 | 25.79436 | -80.28834 | 15 ft | 19 kts | 300° |
| 2026-05-07 15:11 | 25.79504 | -80.28966 | 15 ft | 19 kts | 295° |
| 2026-05-07 15:11 | 25.79568 | -80.29096 | 15 ft | 20 kts | 300° |
| 2026-05-07 15:12 | 25.79639 | -80.29233 | 15 ft | 21 kts | 299° |
| 2026-05-07 15:12 | 25.79711 | -80.29373 | 15 ft | 19 kts | 300° |
| 2026-05-07 15:12 | 25.79775 | -80.29500 | 15 ft | 20 kts | 299° |
| 2026-05-07 15:12 | 25.79842 | -80.29631 | 15 ft | 19 kts | 299° |
| 2026-05-07 15:13 | 25.79910 | -80.29770 | 14 ft | 21 kts | 294° |
| 2026-05-07 15:13 | 25.79965 | -80.29917 | 14 ft | 15 kts | 289° |
| 2026-05-07 15:13 | 25.79987 | -80.30002 | 13 ft | 12 kts | 283° |
| 2026-05-07 15:13 | 25.80016 | -80.30106 | 15 ft | 15 kts | 301° |
| 2026-05-07 15:14 | 25.80076 | -80.30080 | 13 ft | 11 kts | 98° |
| 2026-05-07 15:14 | 25.80075 | -80.30030 | 13 ft | 0 kts | 87° |
| 2026-05-07 15:14 | 25.80082 | -80.29870 | 13 ft | 55 kts | 88° |
| 2026-05-07 15:14 | 25.80110 | -80.29200 | 17 ft | 116 kts | 87° |
| 2026-05-07 15:15 | 25.80156 | -80.28126 | 14 ft | 161 kts | 87° |
| 2026-05-07 15:15 | 25.80209 | -80.26817 | 390 ft | 169 kts | 88° |
| 2026-05-07 15:15 | 25.80264 | -80.25514 | 987 ft | 169 kts | 89° |
| 2026-05-07 15:15 | 25.80316 | -80.24205 | 1565 ft | 171 kts | 92° |
| 2026-05-07 15:16 | 25.80135 | -80.22919 | 2103 ft | 168 kts | 113° |
| 2026-05-07 15:16 | 25.79503 | -80.21778 | 2353 ft | 184 kts | 132° |
| 2026-05-07 15:16 | 25.78633 | -80.20614 | 2562 ft | 207 kts | 130° |
| 2026-05-07 15:16 | 25.77681 | -80.19309 | 2891 ft | 228 kts | 130° |
| 2026-05-07 15:17 | 25.76707 | -80.17849 | 3377 ft | 242 kts | 121° |
| 2026-05-07 15:17 | 25.75888 | -80.16189 | 4038 ft | 246 kts | 119° |
| 2026-05-07 15:17 | 25.75047 | -80.14471 | 4529 ft | 263 kts | 117° |
| 2026-05-07 15:17 | 25.74504 | -80.12503 | 5152 ft | 273 kts | 96° |
| 2026-05-07 15:18 | 25.74646 | -80.10401 | 5873 ft | 278 kts | 74° |
| 2026-05-07 15:18 | 25.75500 | -80.08473 | 6599 ft | 281 kts | 52° |
| 2026-05-07 15:18 | 25.76786 | -80.06825 | 7320 ft | 283 kts | 49° |
| 2026-05-07 15:18 | 25.78091 | -80.05184 | 8055 ft | 285 kts | 49° |
| 2026-05-07 15:19 | 25.79408 | -80.03523 | 8771 ft | 287 kts | 50° |
| 2026-05-07 15:19 | 25.80731 | -80.01851 | 9475 ft | 290 kts | 50° |
| 2026-05-07 15:19 | 25.82046 | -80.00183 | 10132 ft | 293 kts | 50° |
| 2026-05-07 15:19 | 25.83446 | -79.98402 | 10364 ft | 313 kts | 50° |
| 2026-05-07 15:20 | 25.84899 | -79.96546 | 10534 ft | 331 kts | 50° |
| 2026-05-07 15:20 | 25.86425 | -79.94604 | 10985 ft | 338 kts | 50° |
| 2026-05-07 15:20 | 25.87980 | -79.92624 | 11530 ft | 341 kts | 49° |
| 2026-05-07 15:20 | 25.89550 | -79.90626 | 12117 ft | 344 kts | 49° |
| 2026-05-07 15:21 | 25.91136 | -79.88614 | 12677 ft | 348 kts | 49° |
| 2026-05-07 15:21 | 25.92735 | -79.86584 | 13240 ft | 352 kts | 49° |
| 2026-05-07 15:21 | 25.94354 | -79.84525 | 13794 ft | 356 kts | 48° |
| 2026-05-07 15:21 | 25.95986 | -79.82443 | 14297 ft | 359 kts | 49° |
| 2026-05-07 15:22 | 25.97634 | -79.80341 | 14797 ft | 362 kts | 48° |
| 2026-05-07 15:22 | 25.99294 | -79.78223 | 15316 ft | 365 kts | 48° |
| 2026-05-07 15:22 | 26.00967 | -79.76087 | 15831 ft | 368 kts | 47° |
| 2026-05-07 15:22 | 26.02650 | -79.73937 | 16337 ft | 370 kts | 47° |
| 2026-05-07 15:23 | 26.04348 | -79.71766 | 16840 ft | 374 kts | 47° |
| 2026-05-07 15:23 | 26.06060 | -79.69571 | 17331 ft | 377 kts | 47° |
| 2026-05-07 15:23 | 26.07784 | -79.67365 | 17835 ft | 380 kts | 46° |
| 2026-05-07 15:23 | 26.09523 | -79.65139 | 18336 ft | 383 kts | 46° |
| 2026-05-07 15:24 | 26.11205 | -79.62814 | 18764 ft | 388 kts | 52° |
| 2026-05-07 15:24 | 26.12772 | -79.60358 | 19197 ft | 391 kts | 52° |
| 2026-05-07 15:24 | 26.14354 | -79.57875 | 19629 ft | 395 kts | 52° |
| 2026-05-07 15:24 | 26.15942 | -79.55374 | 20066 ft | 398 kts | 52° |
| 2026-05-07 15:25 | 26.17546 | -79.52846 | 20505 ft | 401 kts | 52° |
| 2026-05-07 15:25 | 26.19142 | -79.50329 | 20924 ft | 405 kts | 51° |
| 2026-05-07 15:25 | 26.20773 | -79.47753 | 21337 ft | 409 kts | 51° |
| 2026-05-07 15:25 | 26.22420 | -79.45151 | 21771 ft | 413 kts | 51° |
| 2026-05-07 15:26 | 26.24082 | -79.42526 | 22200 ft | 416 kts | 51° |
| 2026-05-07 15:26 | 26.25755 | -79.39881 | 22647 ft | 419 kts | 51° |
| 2026-05-07 15:26 | 26.27454 | -79.37229 | 23082 ft | 421 kts | 48° |
| 2026-05-07 15:26 | 26.29435 | -79.34836 | 23496 ft | 419 kts | 38° |
| 2026-05-07 15:27 | 26.31743 | -79.32870 | 23866 ft | 417 kts | 28° |
| 2026-05-07 15:27 | 26.34196 | -79.31127 | 24222 ft | 419 kts | 28° |
| 2026-05-07 15:27 | 26.36664 | -79.29379 | 24578 ft | 422 kts | 28° |
| 2026-05-07 15:27 | 26.39147 | -79.27620 | 24920 ft | 424 kts | 28° |
| 2026-05-07 15:28 | 26.41640 | -79.25848 | 25267 ft | 426 kts | 28° |
| 2026-05-07 15:28 | 26.44147 | -79.24060 | 25608 ft | 428 kts | 28° |
| 2026-05-07 15:28 | 26.46663 | -79.22265 | 25955 ft | 431 kts | 28° |
| 2026-05-07 15:28 | 26.49197 | -79.20456 | 26272 ft | 433 kts | 28° |
| 2026-05-07 15:29 | 26.51743 | -79.18637 | 26595 ft | 436 kts | 28° |
| 2026-05-07 15:29 | 26.54302 | -79.16810 | 26911 ft | 438 kts | 28° |
| 2026-05-07 15:29 | 26.56878 | -79.14973 | 27226 ft | 440 kts | 28° |
| 2026-05-07 15:29 | 26.59466 | -79.13128 | 27533 ft | 442 kts | 28° |
| 2026-05-07 15:30 | 26.62063 | -79.11273 | 27835 ft | 445 kts | 28° |
| 2026-05-07 15:30 | 26.64674 | -79.09404 | 28148 ft | 447 kts | 28° |
| 2026-05-07 15:30 | 26.67296 | -79.07523 | 28450 ft | 449 kts | 28° |
| 2026-05-07 15:30 | 26.69933 | -79.05631 | 28755 ft | 451 kts | 27° |
| 2026-05-07 15:31 | 26.72578 | -79.03735 | 29077 ft | 453 kts | 27° |
| 2026-05-07 15:31 | 26.75237 | -79.01827 | 29410 ft | 455 kts | 27° |
| 2026-05-07 15:31 | 26.77906 | -78.99910 | 29707 ft | 457 kts | 27° |
| 2026-05-07 15:31 | 26.80592 | -78.97980 | 30010 ft | 460 kts | 27° |
| 2026-05-07 15:32 | 26.83287 | -78.96042 | 30287 ft | 462 kts | 27° |
| 2026-05-07 15:32 | 26.85995 | -78.94090 | 30567 ft | 463 kts | 28° |
| 2026-05-07 15:32 | 26.88694 | -78.92145 | 30940 ft | 462 kts | 28° |
| 2026-05-07 15:32 | 26.91392 | -78.90200 | 31310 ft | 461 kts | 28° |
| 2026-05-07 15:33 | 26.94085 | -78.88256 | 31679 ft | 460 kts | 28° |
| 2026-05-07 15:33 | 26.96773 | -78.86316 | 32043 ft | 459 kts | 28° |
| 2026-05-07 15:33 | 26.99457 | -78.84380 | 32423 ft | 459 kts | 28° |
| 2026-05-07 15:33 | 27.02140 | -78.82446 | 32798 ft | 458 kts | 28° |
| 2026-05-07 15:34 | 27.04817 | -78.80516 | 33174 ft | 458 kts | 27° |
| 2026-05-07 15:34 | 27.07500 | -78.78582 | 33528 ft | 458 kts | 27° |
| 2026-05-07 15:34 | 27.10140 | -78.76674 | 33893 ft | 458 kts | 27° |
| 2026-05-07 15:34 | 27.12812 | -78.74741 | 34242 ft | 457 kts | 27° |
| 2026-05-07 15:35 | 27.15485 | -78.72806 | 34554 ft | 456 kts | 28° |
| 2026-05-07 15:35 | 27.18150 | -78.70875 | 34867 ft | 455 kts | 28° |
| 2026-05-07 15:35 | 27.20806 | -78.68948 | 35180 ft | 454 kts | 28° |
| 2026-05-07 15:35 | 27.23452 | -78.67027 | 35517 ft | 452 kts | 27° |
| 2026-05-07 15:36 | 27.26110 | -78.65168 | 35835 ft | 447 kts | 22° |
| 2026-05-07 15:36 | 27.28927 | -78.63761 | 36059 ft | 440 kts | 13° |
| 2026-05-07 15:36 | 27.34855 | -78.62500 | 36106 ft | 433 kts | 1° |
| 2026-05-07 15:37 | 27.40845 | -78.61737 | 36106 ft | 433 kts | 1° |
| 2026-05-07 15:37 | 27.46838 | -78.60960 | 36106 ft | 433 kts | 1° |
| 2026-05-07 15:38 | 27.52827 | -78.60178 | 36106 ft | 433 kts | 1° |
| 2026-05-07 15:38 | 27.58823 | -78.59399 | 36108 ft | 434 kts | 1° |
| 2026-05-07 15:39 | 27.64817 | -78.58621 | 36126 ft | 434 kts | 1° |
| 2026-05-07 15:39 | 27.70812 | -78.57830 | 36125 ft | 434 kts | 1° |
| 2026-05-07 15:40 | 27.76810 | -78.57048 | 36126 ft | 434 kts | 1° |
| 2026-05-07 15:40 | 27.82805 | -78.56271 | 36126 ft | 434 kts | 1° |
| 2026-05-07 15:41 | 27.88797 | -78.55490 | 36125 ft | 434 kts | 1° |
| 2026-05-07 15:41 | 27.94792 | -78.54708 | 36134 ft | 433 kts | 1° |
| 2026-05-07 15:42 | 28.00737 | -78.53927 | 36129 ft | 433 kts | 1° |
| 2026-05-07 15:42 | 28.06714 | -78.53141 | 36127 ft | 432 kts | 1° |
| 2026-05-07 15:43 | 28.12690 | -78.52361 | 36118 ft | 432 kts | 1° |
| 2026-05-07 15:43 | 28.18663 | -78.51579 | 36134 ft | 432 kts | 0° |
| 2026-05-07 15:44 | 28.24639 | -78.50793 | 36130 ft | 432 kts | 0° |
| 2026-05-07 15:44 | 28.30618 | -78.50010 | 36124 ft | 432 kts | 0° |
| 2026-05-07 15:45 | 28.36595 | -78.49219 | 36122 ft | 433 kts | 1° |
| 2026-05-07 15:45 | 28.42577 | -78.48424 | 36121 ft | 432 kts | 0° |
| 2026-05-07 15:46 | 28.51541 | -78.47248 | 36134 ft | 433 kts | 0° |
| 2026-05-07 15:47 | 28.57520 | -78.46449 | 36122 ft | 433 kts | 0° |
| 2026-05-07 15:47 | 28.63499 | -78.45647 | 36125 ft | 433 kts | 0° |
| 2026-05-07 15:48 | 28.69480 | -78.44860 | 36117 ft | 433 kts | 0° |
| 2026-05-07 15:48 | 28.75466 | -78.44075 | 36132 ft | 433 kts | 360° |
| 2026-05-07 15:49 | 28.81456 | -78.43279 | 36118 ft | 434 kts | 0° |
| 2026-05-07 15:49 | 28.87410 | -78.42478 | 36113 ft | 434 kts | 0° |
| 2026-05-07 15:50 | 28.93408 | -78.41673 | 36107 ft | 434 kts | 0° |
| 2026-05-07 15:50 | 28.99405 | -78.40881 | 36108 ft | 434 kts | 360° |
| 2026-05-07 15:51 | 29.05404 | -78.40086 | 36127 ft | 434 kts | 0° |
| 2026-05-07 15:51 | 29.11410 | -78.39283 | 36116 ft | 435 kts | 0° |
| 2026-05-07 15:52 | 29.17422 | -78.38472 | 36113 ft | 435 kts | 0° |
| 2026-05-07 15:52 | 29.23431 | -78.37662 | 36109 ft | 435 kts | 0° |
| 2026-05-07 15:53 | 29.29447 | -78.36859 | 36104 ft | 435 kts | 0° |
| 2026-05-07 15:53 | 29.35462 | -78.36043 | 36117 ft | 436 kts | 0° |
| 2026-05-07 15:54 | 29.40465 | -78.35366 | 36110 ft | 436 kts | 0° |
| 2026-05-07 15:54 | 29.46487 | -78.34607 | 36105 ft | 432 kts | 355° |
| 2026-05-07 15:55 | 29.52309 | -78.35441 | 36106 ft | 416 kts | 338° |
| 2026-05-07 15:55 | 29.57879 | -78.37278 | 36104 ft | 417 kts | 338° |
| 2026-05-07 15:56 | 29.63468 | -78.39090 | 36122 ft | 418 kts | 338° |
| 2026-05-07 15:56 | 29.69062 | -78.40903 | 36106 ft | 418 kts | 338° |
| 2026-05-07 15:57 | 29.74663 | -78.42726 | 36101 ft | 418 kts | 338° |
| 2026-05-07 15:57 | 29.80261 | -78.44554 | 36095 ft | 418 kts | 338° |
| 2026-05-07 15:58 | 29.85870 | -78.46387 | 36095 ft | 419 kts | 338° |
| 2026-05-07 15:58 | 29.91475 | -78.48224 | 36113 ft | 419 kts | 338° |
| 2026-05-07 15:59 | 29.97092 | -78.50063 | 36104 ft | 420 kts | 338° |
| 2026-05-07 15:59 | 30.02709 | -78.51902 | 36096 ft | 420 kts | 338° |
| 2026-05-07 16:00 | 30.08338 | -78.53742 | 36093 ft | 420 kts | 338° |
| 2026-05-07 16:00 | 30.14009 | -78.55416 | 36086 ft | 426 kts | 346° |
| 2026-05-07 16:01 | 30.20028 | -78.55213 | 36086 ft | 439 kts | 0° |
| 2026-05-07 16:01 | 30.26092 | -78.54337 | 36080 ft | 440 kts | 0° |
| 2026-05-07 16:02 | 30.32165 | -78.53456 | 36079 ft | 440 kts | 0° |
| 2026-05-07 16:02 | 30.38238 | -78.52576 | 36079 ft | 440 kts | 0° |
| 2026-05-07 16:03 | 30.44314 | -78.51700 | 36078 ft | 440 kts | 0° |
| 2026-05-07 16:03 | 30.50391 | -78.50735 | 36093 ft | 441 kts | 1° |
| 2026-05-07 16:04 | 30.56455 | -78.49727 | 36086 ft | 440 kts | 1° |
| 2026-05-07 16:04 | 30.62521 | -78.48725 | 36081 ft | 440 kts | 1° |
| 2026-05-07 16:05 | 30.68580 | -78.47736 | 36075 ft | 439 kts | 1° |
| 2026-05-07 16:05 | 30.74614 | -78.46761 | 36096 ft | 439 kts | 0° |
| 2026-05-07 16:06 | 30.80676 | -78.45780 | 36082 ft | 440 kts | 0° |
| 2026-05-07 16:06 | 30.86741 | -78.44788 | 36078 ft | 440 kts | 0° |
| 2026-05-07 16:07 | 30.92852 | -78.43791 | 36071 ft | 440 kts | 0° |
| 2026-05-07 16:07 | 30.98922 | -78.42798 | 36069 ft | 441 kts | 0° |
| 2026-05-07 16:08 | 31.04997 | -78.41800 | 36079 ft | 442 kts | 0° |
| 2026-05-07 16:08 | 31.11089 | -78.40792 | 36068 ft | 442 kts | 0° |
| 2026-05-07 16:09 | 31.17183 | -78.39797 | 36064 ft | 442 kts | 0° |
| 2026-05-07 16:09 | 31.23282 | -78.38796 | 36051 ft | 443 kts | 0° |
| 2026-05-07 16:10 | 31.29383 | -78.37790 | 36074 ft | 443 kts | 0° |
| 2026-05-07 16:10 | 31.35487 | -78.36788 | 36068 ft | 443 kts | 360° |
| 2026-05-07 16:11 | 31.41595 | -78.35792 | 36056 ft | 443 kts | 0° |
| 2026-05-07 16:11 | 31.47711 | -78.34780 | 36055 ft | 443 kts | 0° |
| 2026-05-07 16:12 | 31.53818 | -78.33763 | 36050 ft | 443 kts | 0° |
| 2026-05-07 16:12 | 31.59928 | -78.32756 | 36060 ft | 444 kts | 359° |
| 2026-05-07 16:13 | 31.66042 | -78.31747 | 36046 ft | 444 kts | 359° |
| 2026-05-07 16:13 | 31.72155 | -78.30738 | 36042 ft | 444 kts | 359° |
| 2026-05-07 16:14 | 31.78271 | -78.29718 | 36029 ft | 444 kts | 359° |
| 2026-05-07 16:14 | 31.84388 | -78.28701 | 36040 ft | 444 kts | 359° |
| 2026-05-07 16:15 | 31.90506 | -78.27680 | 36030 ft | 444 kts | 359° |
| 2026-05-07 16:15 | 31.96612 | -78.26651 | 36022 ft | 444 kts | 359° |
| 2026-05-07 16:16 | 32.02734 | -78.25625 | 36021 ft | 444 kts | 359° |
| 2026-05-07 16:16 | 32.08855 | -78.24695 | 36037 ft | 443 kts | 358° |
| 2026-05-07 16:17 | 32.14968 | -78.23839 | 36026 ft | 442 kts | 358° |
| 2026-05-07 16:17 | 32.21074 | -78.22970 | 36010 ft | 442 kts | 358° |
| 2026-05-07 16:18 | 32.27184 | -78.22081 | 36005 ft | 442 kts | 358° |
| 2026-05-07 16:18 | 32.33293 | -78.21191 | 35992 ft | 442 kts | 358° |
| 2026-05-07 16:19 | 32.39406 | -78.20289 | 35999 ft | 443 kts | 358° |
| 2026-05-07 16:19 | 32.45522 | -78.19381 | 35992 ft | 443 kts | 358° |
| 2026-05-07 16:20 | 32.51640 | -78.18473 | 35983 ft | 443 kts | 358° |
| 2026-05-07 16:20 | 32.57762 | -78.17572 | 35982 ft | 443 kts | 358° |
| 2026-05-07 16:21 | 32.63887 | -78.16675 | 35997 ft | 444 kts | 358° |
| 2026-05-07 16:21 | 32.69975 | -78.15786 | 35986 ft | 444 kts | 358° |
| 2026-05-07 16:22 | 32.76114 | -78.14886 | 35981 ft | 444 kts | 358° |
| 2026-05-07 16:22 | 32.82253 | -78.13969 | 35974 ft | 445 kts | 358° |
| 2026-05-07 16:23 | 32.88389 | -78.13054 | 35968 ft | 445 kts | 358° |
| 2026-05-07 16:23 | 32.94529 | -78.12141 | 35965 ft | 444 kts | 358° |
| 2026-05-07 16:24 | 33.00666 | -78.11229 | 35964 ft | 444 kts | 358° |
| 2026-05-07 16:24 | 33.06805 | -78.10312 | 35964 ft | 444 kts | 358° |
| 2026-05-07 16:25 | 33.12940 | -78.09405 | 35980 ft | 445 kts | 358° |
| 2026-05-07 16:25 | 33.19090 | -78.08489 | 35952 ft | 446 kts | 358° |
| 2026-05-07 16:26 | 33.25258 | -78.07567 | 36049 ft | 449 kts | 358° |
| 2026-05-07 16:26 | 33.28356 | -78.07104 | 36309 ft | 449 kts | 358° |
| 2026-05-07 16:26 | 33.31453 | -78.06640 | 36592 ft | 448 kts | 357° |
| 2026-05-07 16:26 | 33.33498 | -78.06330 | 36783 ft | 447 kts | 357° |
| 2026-05-07 16:27 | 33.37629 | -78.05709 | 36959 ft | 447 kts | 357° |
| 2026-05-07 16:27 | 33.43803 | -78.04784 | 36941 ft | 447 kts | 356° |
| 2026-05-07 16:28 | 33.49969 | -78.03858 | 36941 ft | 447 kts | 356° |
| 2026-05-07 16:28 | 33.56143 | -78.02923 | 36933 ft | 447 kts | 356° |
| 2026-05-07 16:29 | 33.62277 | -78.01996 | 36933 ft | 447 kts | 356° |
| 2026-05-07 16:29 | 33.68457 | -78.01063 | 36953 ft | 448 kts | 355° |
| 2026-05-07 16:30 | 33.74649 | -78.00128 | 36943 ft | 449 kts | 355° |
| 2026-05-07 16:30 | 33.80853 | -77.99181 | 36941 ft | 450 kts | 356° |
| 2026-05-07 16:31 | 33.87062 | -77.98240 | 36947 ft | 449 kts | 354° |
| 2026-05-07 16:31 | 33.93212 | -77.97946 | 36960 ft | 442 kts | 349° |
| 2026-05-07 16:32 | 33.99363 | -77.97737 | 36953 ft | 443 kts | 349° |
| 2026-05-07 16:32 | 34.05527 | -77.97524 | 36945 ft | 443 kts | 349° |
| 2026-05-07 16:33 | 34.11694 | -77.97295 | 36957 ft | 444 kts | 349° |
| 2026-05-07 16:33 | 34.17869 | -77.97065 | 36970 ft | 444 kts | 349° |
| 2026-05-07 16:34 | 34.24043 | -77.96838 | 36964 ft | 444 kts | 349° |
| 2026-05-07 16:34 | 34.30233 | -77.96624 | 36968 ft | 445 kts | 349° |
| 2026-05-07 16:35 | 34.36428 | -77.96401 | 36967 ft | 445 kts | 349° |
| 2026-05-07 16:35 | 34.42625 | -77.96172 | 36959 ft | 446 kts | 349° |
| 2026-05-07 16:36 | 34.48822 | -77.95946 | 36935 ft | 446 kts | 349° |
| 2026-05-07 16:36 | 34.54988 | -77.95718 | 36938 ft | 447 kts | 349° |
| 2026-05-07 16:37 | 34.61189 | -77.95482 | 36941 ft | 444 kts | 349° |
| 2026-05-07 16:37 | 34.67366 | -77.95257 | 36944 ft | 444 kts | 348° |
| 2026-05-07 16:38 | 34.72548 | -77.95080 | 36944 ft | 445 kts | 348° |
| 2026-05-07 16:38 | 34.78737 | -77.94862 | 36943 ft | 446 kts | 348° |
| 2026-05-07 16:39 | 34.84952 | -77.94630 | 36939 ft | 446 kts | 348° |
| 2026-05-07 16:39 | 34.91122 | -77.94402 | 36970 ft | 447 kts | 347° |
| 2026-05-07 16:40 | 34.97348 | -77.94176 | 36949 ft | 448 kts | 347° |
| 2026-05-07 16:40 | 35.03583 | -77.93947 | 36941 ft | 449 kts | 347° |
| 2026-05-07 16:41 | 35.09823 | -77.93720 | 36936 ft | 449 kts | 348° |
| 2026-05-07 16:41 | 35.16075 | -77.93487 | 36961 ft | 450 kts | 347° |
| 2026-05-07 16:42 | 35.22213 | -77.93248 | 36927 ft | 449 kts | 347° |
| 2026-05-07 16:42 | 35.27595 | -77.93047 | 36930 ft | 449 kts | 347° |
| 2026-05-07 16:43 | 35.33369 | -77.93028 | 36930 ft | 438 kts | 341° |
| 2026-05-07 16:43 | 35.38942 | -77.93487 | 36928 ft | 438 kts | 341° |
| 2026-05-07 16:44 | 35.44630 | -77.93972 | 36914 ft | 438 kts | 341° |
| 2026-05-07 16:44 | 35.49890 | -77.94409 | 36918 ft | 438 kts | 341° |
| 2026-05-07 16:45 | 35.55972 | -77.94914 | 36916 ft | 439 kts | 341° |
| 2026-05-07 16:45 | 35.62075 | -77.95417 | 36917 ft | 439 kts | 341° |
| 2026-05-07 16:46 | 35.68155 | -77.95924 | 36893 ft | 437 kts | 340° |
| 2026-05-07 16:46 | 35.74218 | -77.96424 | 36884 ft | 437 kts | 340° |
| 2026-05-07 16:47 | 35.80284 | -77.96934 | 36885 ft | 437 kts | 340° |
| 2026-05-07 16:47 | 35.86361 | -77.97444 | 36899 ft | 438 kts | 340° |
| 2026-05-07 16:48 | 35.92308 | -77.97936 | 36939 ft | 438 kts | 340° |
| 2026-05-07 16:48 | 35.98317 | -77.98441 | 36935 ft | 438 kts | 340° |
| 2026-05-07 16:49 | 36.04351 | -77.98956 | 36933 ft | 438 kts | 340° |
| 2026-05-07 16:49 | 36.10443 | -77.99464 | 36930 ft | 438 kts | 340° |
| 2026-05-07 16:50 | 36.16565 | -77.99974 | 36924 ft | 438 kts | 340° |
| 2026-05-07 16:50 | 36.22574 | -78.00475 | 36903 ft | 435 kts | 339° |
| 2026-05-07 16:51 | 36.28622 | -78.00987 | 36913 ft | 436 kts | 339° |
| 2026-05-07 16:51 | 36.34685 | -78.01505 | 36921 ft | 437 kts | 339° |
| 2026-05-07 16:51 | 36.37767 | -78.01593 | 36919 ft | 453 kts | 348° |
| 2026-05-07 16:52 | 36.40956 | -78.01017 | 36953 ft | 472 kts | 356° |
| 2026-05-07 16:52 | 36.47317 | -77.99343 | 36936 ft | 474 kts | 356° |
| 2026-05-07 16:53 | 36.53770 | -77.97624 | 36932 ft | 475 kts | 356° |
| 2026-05-07 16:53 | 36.60236 | -77.95918 | 36977 ft | 475 kts | 356° |
| 2026-05-07 16:54 | 36.66700 | -77.94237 | 37012 ft | 475 kts | 356° |
| 2026-05-07 16:54 | 36.73179 | -77.92544 | 36997 ft | 476 kts | 356° |
| 2026-05-07 16:55 | 36.79660 | -77.90837 | 36983 ft | 476 kts | 357° |
| 2026-05-07 16:55 | 36.86149 | -77.89115 | 37018 ft | 477 kts | 356° |
| 2026-05-07 16:56 | 36.92653 | -77.87397 | 36958 ft | 478 kts | 356° |
| 2026-05-07 16:56 | 37.02431 | -77.84811 | 36953 ft | 479 kts | 357° |
| 2026-05-07 16:57 | 37.08957 | -77.83082 | 37020 ft | 480 kts | 356° |
| 2026-05-07 16:57 | 37.15509 | -77.81345 | 36943 ft | 482 kts | 357° |
| 2026-05-07 16:58 | 37.22075 | -77.79592 | 36961 ft | 483 kts | 357° |
| 2026-05-07 16:58 | 37.28655 | -77.77833 | 36964 ft | 484 kts | 357° |
| 2026-05-07 16:59 | 37.35253 | -77.76070 | 36995 ft | 485 kts | 357° |
| 2026-05-07 16:59 | 37.41820 | -77.74317 | 36983 ft | 486 kts | 357° |
| 2026-05-07 17:00 | 37.48438 | -77.72538 | 36979 ft | 487 kts | 357° |
| 2026-05-07 17:00 | 37.51745 | -77.71331 | 36976 ft | 506 kts | 8° |
| 2026-05-07 17:00 | 37.54977 | -77.69383 | 37049 ft | 525 kts | 19° |
| 2026-05-07 17:01 | 37.61196 | -77.64386 | 36980 ft | 530 kts | 21° |
| 2026-05-07 17:01 | 37.67403 | -77.59340 | 36968 ft | 531 kts | 21° |
| 2026-05-07 17:02 | 37.73620 | -77.54292 | 36963 ft | 532 kts | 21° |
| 2026-05-07 17:02 | 37.79844 | -77.49249 | 36975 ft | 532 kts | 21° |
| 2026-05-07 17:03 | 37.86078 | -77.44185 | 36984 ft | 532 kts | 21° |
| 2026-05-07 17:03 | 37.92307 | -77.39099 | 36996 ft | 533 kts | 21° |
| 2026-05-07 17:04 | 37.98527 | -77.34009 | 37026 ft | 533 kts | 21° |
| 2026-05-07 17:04 | 38.04757 | -77.28917 | 36957 ft | 532 kts | 21° |
| 2026-05-07 17:05 | 38.10980 | -77.23828 | 36955 ft | 533 kts | 21° |
| 2026-05-07 17:05 | 38.17206 | -77.18722 | 36956 ft | 533 kts | 21° |
| 2026-05-07 17:06 | 38.23447 | -77.13599 | 36966 ft | 534 kts | 21° |
| 2026-05-07 17:06 | 38.29679 | -77.08427 | 36976 ft | 536 kts | 23° |
| 2026-05-07 17:07 | 38.35783 | -77.02844 | 36978 ft | 543 kts | 27° |
| 2026-05-07 17:07 | 38.41751 | -76.96888 | 36994 ft | 547 kts | 28° |
| 2026-05-07 17:08 | 38.47730 | -76.90922 | 36972 ft | 545 kts | 27° |
| 2026-05-07 17:08 | 38.53764 | -76.85087 | 36944 ft | 544 kts | 26° |
| 2026-05-07 17:09 | 38.59829 | -76.79288 | 36961 ft | 545 kts | 26° |
| 2026-05-07 17:09 | 38.65843 | -76.73463 | 36968 ft | 548 kts | 32° |
| 2026-05-07 17:10 | 38.71860 | -76.67426 | 36846 ft | 543 kts | 32° |
| 2026-05-07 17:10 | 38.74804 | -76.64482 | 36738 ft | 531 kts | 32° |
| 2026-05-07 17:10 | 38.77681 | -76.61593 | 36639 ft | 522 kts | 32° |
| 2026-05-07 17:11 | 38.83449 | -76.55794 | 36495 ft | 536 kts | 31° |
| 2026-05-07 17:11 | 38.89464 | -76.50023 | 36326 ft | 535 kts | 29° |
| 2026-05-07 17:12 | 38.92444 | -76.47265 | 36243 ft | 522 kts | 29° |
| 2026-05-07 17:12 | 38.95392 | -76.44503 | 35426 ft | 529 kts | 30° |
| 2026-05-07 17:12 | 38.98363 | -76.41638 | 34616 ft | 537 kts | 31° |
| 2026-05-07 17:12 | 39.01339 | -76.38692 | 33975 ft | 543 kts | 32° |
| 2026-05-07 17:13 | 39.04311 | -76.35665 | 33268 ft | 546 kts | 34° |
| 2026-05-07 17:13 | 39.07181 | -76.32514 | 33059 ft | 539 kts | 37° |
| 2026-05-07 17:13 | 39.09928 | -76.29249 | 32619 ft | 538 kts | 40° |
| 2026-05-07 17:13 | 39.12601 | -76.25898 | 32242 ft | 533 kts | 41° |
| 2026-05-07 17:14 | 39.15222 | -76.22540 | 31890 ft | 528 kts | 41° |
| 2026-05-07 17:14 | 39.17822 | -76.19221 | 31410 ft | 526 kts | 41° |
| 2026-05-07 17:14 | 39.20443 | -76.15937 | 30962 ft | 524 kts | 40° |
| 2026-05-07 17:14 | 39.23114 | -76.12749 | 30472 ft | 520 kts | 37° |
| 2026-05-07 17:15 | 39.25831 | -76.09702 | 30059 ft | 516 kts | 36° |
| 2026-05-07 17:15 | 39.28568 | -76.06728 | 29605 ft | 513 kts | 35° |
| 2026-05-07 17:15 | 39.31286 | -76.03773 | 29202 ft | 510 kts | 36° |
| 2026-05-07 17:15 | 39.33954 | -76.00772 | 28829 ft | 507 kts | 38° |
| 2026-05-07 17:16 | 39.36561 | -75.97721 | 28485 ft | 504 kts | 39° |
| 2026-05-07 17:16 | 39.39109 | -75.94639 | 28124 ft | 501 kts | 40° |
| 2026-05-07 17:16 | 39.41597 | -75.91594 | 27817 ft | 498 kts | 40° |
| 2026-05-07 17:16 | 39.44104 | -75.88526 | 27402 ft | 495 kts | 40° |
| 2026-05-07 17:17 | 39.46601 | -75.85474 | 27010 ft | 492 kts | 40° |
| 2026-05-07 17:17 | 39.49085 | -75.82445 | 26647 ft | 488 kts | 40° |
| 2026-05-07 17:17 | 39.51550 | -75.79459 | 26278 ft | 484 kts | 39° |
| 2026-05-07 17:17 | 39.54064 | -75.76564 | 25733 ft | 482 kts | 37° |
| 2026-05-07 17:18 | 39.56631 | -75.73792 | 25290 ft | 479 kts | 35° |
| 2026-05-07 17:18 | 39.59215 | -75.71084 | 24977 ft | 476 kts | 37° |
| 2026-05-07 17:18 | 39.61690 | -75.68267 | 24709 ft | 472 kts | 40° |
| 2026-05-07 17:18 | 39.64071 | -75.65341 | 24399 ft | 468 kts | 42° |
| 2026-05-07 17:19 | 39.66376 | -75.62372 | 24042 ft | 465 kts | 43° |
| 2026-05-07 17:19 | 39.68679 | -75.59421 | 23594 ft | 465 kts | 43° |
| 2026-05-07 17:19 | 39.70998 | -75.56511 | 23119 ft | 463 kts | 41° |
| 2026-05-07 17:19 | 39.73335 | -75.53659 | 22666 ft | 459 kts | 40° |
| 2026-05-07 17:20 | 39.75662 | -75.50861 | 22292 ft | 454 kts | 40° |
| 2026-05-07 17:20 | 39.77979 | -75.48103 | 21944 ft | 449 kts | 40° |
| 2026-05-07 17:20 | 39.80278 | -75.45386 | 21629 ft | 444 kts | 40° |
| 2026-05-07 17:20 | 39.82560 | -75.42702 | 21331 ft | 440 kts | 39° |
| 2026-05-07 17:21 | 39.84822 | -75.40035 | 21034 ft | 438 kts | 40° |
| 2026-05-07 17:21 | 39.87048 | -75.37340 | 20745 ft | 436 kts | 41° |
| 2026-05-07 17:21 | 39.89236 | -75.34628 | 20466 ft | 433 kts | 42° |
| 2026-05-07 17:21 | 39.91397 | -75.31883 | 20212 ft | 431 kts | 43° |
| 2026-05-07 17:22 | 39.93548 | -75.29181 | 19966 ft | 428 kts | 41° |
| 2026-05-07 17:22 | 39.94984 | -75.27436 | 19807 ft | 426 kts | 40° |
| 2026-05-07 17:22 | 39.97164 | -75.24845 | 19663 ft | 421 kts | 39° |
| 2026-05-07 17:22 | 40.00022 | -75.21494 | 19423 ft | 415 kts | 39° |
| 2026-05-07 17:23 | 40.01469 | -75.19784 | 19311 ft | 414 kts | 40° |
| 2026-05-07 17:23 | 40.03576 | -75.17225 | 18924 ft | 417 kts | 41° |
| 2026-05-07 17:23 | 40.05708 | -75.14585 | 18064 ft | 429 kts | 41° |
| 2026-05-07 17:23 | 40.07885 | -75.11875 | 17118 ft | 436 kts | 41° |
| 2026-05-07 17:24 | 40.10061 | -75.09183 | 16120 ft | 422 kts | 42° |
| 2026-05-07 17:24 | 40.12139 | -75.06602 | 15151 ft | 403 kts | 43° |
| 2026-05-07 17:24 | 40.14124 | -75.04119 | 14235 ft | 387 kts | 43° |
| 2026-05-07 17:24 | 40.16030 | -75.01739 | 13221 ft | 373 kts | 43° |
| 2026-05-07 17:25 | 40.17927 | -74.99390 | 11744 ft | 375 kts | 42° |
| 2026-05-07 17:25 | 40.19812 | -74.97098 | 10645 ft | 365 kts | 41° |
| 2026-05-07 17:25 | 40.21686 | -74.94847 | 9901 ft | 369 kts | 41° |
| 2026-05-07 17:25 | 40.23559 | -74.92588 | 9603 ft | 361 kts | 41° |
| 2026-05-07 17:26 | 40.25346 | -74.90402 | 9131 ft | 339 kts | 42° |
| 2026-05-07 17:26 | 40.26980 | -74.88306 | 8393 ft | 321 kts | 45° |
| 2026-05-07 17:26 | 40.28475 | -74.86217 | 7745 ft | 309 kts | 47° |
| 2026-05-07 17:26 | 40.29895 | -74.84173 | 7792 ft | 305 kts | 47° |
| 2026-05-07 17:27 | 40.31325 | -74.82119 | 7633 ft | 305 kts | 47° |
| 2026-05-07 17:27 | 40.32735 | -74.80082 | 7447 ft | 302 kts | 48° |
| 2026-05-07 17:27 | 40.34126 | -74.78021 | 7232 ft | 299 kts | 48° |
| 2026-05-07 17:27 | 40.35513 | -74.75999 | 6887 ft | 296 kts | 47° |
| 2026-05-07 17:28 | 40.36903 | -74.74066 | 6724 ft | 287 kts | 41° |
| 2026-05-07 17:28 | 40.38294 | -74.72219 | 6482 ft | 282 kts | 39° |
| 2026-05-07 17:28 | 40.39681 | -74.70424 | 6219 ft | 278 kts | 40° |
| 2026-05-07 17:28 | 40.41028 | -74.68627 | 5961 ft | 274 kts | 41° |
| 2026-05-07 17:29 | 40.42217 | -74.66669 | 5701 ft | 276 kts | 56° |
| 2026-05-07 17:29 | 40.42951 | -74.64343 | 5434 ft | 277 kts | 71° |
| 2026-05-07 17:29 | 40.43463 | -74.61918 | 5311 ft | 275 kts | 71° |
| 2026-05-07 17:29 | 40.43986 | -74.59505 | 5144 ft | 274 kts | 71° |
| 2026-05-07 17:30 | 40.44535 | -74.57155 | 4882 ft | 271 kts | 70° |
| 2026-05-07 17:30 | 40.45110 | -74.54817 | 4621 ft | 268 kts | 70° |
| 2026-05-07 17:30 | 40.45685 | -74.52511 | 4387 ft | 266 kts | 69° |
| 2026-05-07 17:30 | 40.46253 | -74.50198 | 4202 ft | 266 kts | 70° |
| 2026-05-07 17:31 | 40.46806 | -74.47887 | 4004 ft | 265 kts | 71° |
| 2026-05-07 17:31 | 40.47350 | -74.45576 | 3808 ft | 265 kts | 70° |
| 2026-05-07 17:31 | 40.47892 | -74.43270 | 3601 ft | 264 kts | 71° |
| 2026-05-07 17:31 | 40.48426 | -74.40996 | 3474 ft | 256 kts | 71° |
| 2026-05-07 17:32 | 40.48944 | -74.38796 | 3367 ft | 247 kts | 70° |
| 2026-05-07 17:32 | 40.49441 | -74.36686 | 3265 ft | 236 kts | 70° |
| 2026-05-07 17:32 | 40.49914 | -74.34674 | 3171 ft | 226 kts | 70° |
| 2026-05-07 17:32 | 40.50364 | -74.32757 | 3063 ft | 216 kts | 70° |
| 2026-05-07 17:33 | 40.50800 | -74.30896 | 2966 ft | 208 kts | 70° |
| 2026-05-07 17:33 | 40.51243 | -74.29128 | 2867 ft | 200 kts | 61° |
| 2026-05-07 17:33 | 40.52015 | -74.27673 | 2841 ft | 187 kts | 40° |
| 2026-05-07 17:33 | 40.53032 | -74.26755 | 2818 ft | 171 kts | 23° |
| 2026-05-07 17:34 | 40.54039 | -74.26120 | 2821 ft | 151 kts | 24° |
| 2026-05-07 17:34 | 40.54958 | -74.25538 | 2772 ft | 142 kts | 22° |
| 2026-05-07 17:34 | 40.55839 | -74.24981 | 2640 ft | 139 kts | 23° |
| 2026-05-07 17:34 | 40.56710 | -74.24430 | 2496 ft | 140 kts | 23° |
| 2026-05-07 17:35 | 40.57580 | -74.23880 | 2316 ft | 138 kts | 24° |
| 2026-05-07 17:35 | 40.58444 | -74.23333 | 2135 ft | 138 kts | 23° |
| 2026-05-07 17:35 | 40.59307 | -74.22787 | 1957 ft | 137 kts | 25° |
| 2026-05-07 17:35 | 40.60164 | -74.22243 | 1774 ft | 137 kts | 22° |
| 2026-05-07 17:36 | 40.61017 | -74.21703 | 1590 ft | 137 kts | 22° |
| 2026-05-07 17:36 | 40.61871 | -74.21162 | 1395 ft | 137 kts | 24° |
| 2026-05-07 17:36 | 40.62734 | -74.20614 | 1218 ft | 138 kts | 22° |
| 2026-05-07 17:36 | 40.63594 | -74.20068 | 1034 ft | 137 kts | 23° |
| 2026-05-07 17:37 | 40.64446 | -74.19531 | 848 ft | 135 kts | 22° |
| 2026-05-07 17:37 | 40.65292 | -74.18993 | 657 ft | 137 kts | 22° |
| 2026-05-07 17:37 | 40.66146 | -74.18450 | 420 ft | 136 kts | 25° |
| 2026-05-07 17:37 | 40.66995 | -74.17906 | 228 ft | 135 kts | 19° |
| 2026-05-07 17:38 | 40.67851 | -74.17359 | 69 ft | 137 kts | 20° |
| 2026-05-07 17:38 | 40.68657 | -74.16859 | 22 ft | 113 kts | 26° |
| 2026-05-07 17:38 | 40.69220 | -74.16515 | 24 ft | 61 kts | 23° |
| 2026-05-07 17:38 | 40.69437 | -74.16451 | 24 ft | 12 kts | 346° |
| 2026-05-07 17:39 | 40.69514 | -74.16465 | 23 ft | 13 kts | 353° |
| 2026-05-07 17:39 | 40.69596 | -74.16498 | 22 ft | 13 kts | 309° |
| 2026-05-07 17:39 | 40.69642 | -74.16606 | 22 ft | 14 kts | 295° |
| 2026-05-07 17:39 | 40.69678 | -74.16730 | 22 ft | 14 kts | 257° |
| 2026-05-07 17:40 | 40.69592 | -74.16798 | 22 ft | 16 kts | 207° |
| 2026-05-07 17:40 | 40.69488 | -74.16865 | 22 ft | 18 kts | 206° |
| 2026-05-07 17:40 | 40.69371 | -74.16942 | 23 ft | 20 kts | 207° |
| 2026-05-07 17:40 | 40.69239 | -74.17024 | 22 ft | 20 kts | 205° |
| 2026-05-07 17:41 | 40.69131 | -74.17093 | 22 ft | 17 kts | 205° |
| 2026-05-07 17:41 | 40.69026 | -74.17160 | 23 ft | 18 kts | 206° |
| 2026-05-07 17:41 | 40.68922 | -74.17225 | 22 ft | 17 kts | 205° |
| 2026-05-07 17:41 | 40.68807 | -74.17299 | 23 ft | 18 kts | 206° |
| 2026-05-07 17:42 | 40.68717 | -74.17356 | 23 ft | 15 kts | 206° |
| 2026-05-07 17:42 | 40.68616 | -74.17421 | 23 ft | 18 kts | 206° |
| 2026-05-07 17:42 | 40.68494 | -74.17498 | 24 ft | 20 kts | 206° |
| 2026-05-07 17:42 | 40.68386 | -74.17565 | 23 ft | 18 kts | 204° |
| 2026-05-07 17:43 | 40.68263 | -74.17642 | 23 ft | 21 kts | 206° |
| 2026-05-07 17:43 | 40.68162 | -74.17714 | 22 ft | 13 kts | 227° |
| 2026-05-07 17:43 | 40.68174 | -74.17834 | 22 ft | 14 kts | 296° |
| 2026-05-07 17:43 | 40.68214 | -74.17938 | 22 ft | 14 kts | 296° |
| 2026-05-07 17:44 | 40.68237 | -74.18074 | 22 ft | 16 kts | 274° |
| 2026-05-07 17:44 | 40.68233 | -74.18232 | 22 ft | 19 kts | 272° |
| 2026-05-07 17:44 | 40.68241 | -74.18361 | 22 ft | 12 kts | 275° |
| 2026-05-07 17:44 | 40.68247 | -74.18459 | 24 ft | 0 kts | 275° |
| 2026-05-07 17:45 | 40.68250 | -74.18465 | 24 ft | 4 kts | 296° |
| 2026-05-07 17:45 | 40.68260 | -74.18468 | 22 ft | 3 kts | 358° |
| 2026-05-07 17:45 | 40.68280 | -74.18464 | 22 ft | 3 kts | 5° |
| 2026-05-07 17:46 | 40.68304 | -74.18462 | 22 ft | 4 kts | 5° |
| 2026-05-07 17:46 | 40.68310 | -74.18461 | 22 ft | 0 kts | 5° |